aviador You're here:

LFAQ Decoded Metar

ALBERT in FRANCE
Report Time2018-02-25 15:00:00
UTC Time2018-02-25 15:10:49
Flight Rules vfr VFR
Wind050° at 18 kt
W.Decomp.*RWY 09: 14.0 kt HW 11.3 kt LCW
W.Rank050° ranks 23
Current wind is above 050° avg. (7.4)
Visibility9999 m
Phenomena:N/A
Clouds:N/A
Expected CloudBase > 5,200 ft AGL from Temp-Dew spread
CeilingNone
Temp02°C (ISA -12)
Dew Point-11°C (38% RH)
AAT-7.6°C
QNH1024 hPa
Density Alt-1,463 ft
Elevation364 ft
Report Wrong Elevation
Raw Report
METAR LFAQ 251500Z AUTO 05018KT 9999 NSC 02/M11 Q1024 NOSIG=

Extra information for LFAQ:More info

Metar Taf Metar & Taf Last 4 Metars F.Rules Stats Wind Profile Meteogram Temp Stats Airport Information Weather charts Add Link Nearby VenuesMetar ALERT Operation Metar Decoded Social comments